createdAt,value
2019-06-20T00:00:46.194Z,18.71
2019-06-20T00:03:32.759Z,18.62
2019-06-20T00:06:18.857Z,18.69
2019-06-20T00:09:06.695Z,18.69
2019-06-20T00:11:53.182Z,18.57
2019-06-20T00:14:39.551Z,18.58
2019-06-20T00:17:25.868Z,18.57
2019-06-20T00:20:12.191Z,18.52
2019-06-20T00:22:58.492Z,18.30
2019-06-20T00:25:44.829Z,18.41
2019-06-20T00:28:30.762Z,18.32
2019-06-20T00:31:17.017Z,18.36
2019-06-20T00:34:03.137Z,18.28
2019-06-20T00:36:51.377Z,18.24
2019-06-20T00:39:37.593Z,18.25
2019-06-20T00:42:23.972Z,18.07
2019-06-20T00:45:10.230Z,18.10
2019-06-20T00:47:56.347Z,18.11
2019-06-20T00:50:42.512Z,18.23
2019-06-20T00:53:28.612Z,18.41
2019-06-20T00:56:14.901Z,18.25
2019-06-20T00:59:00.995Z,18.33
2019-06-20T01:01:47.248Z,18.33
2019-06-20T01:04:33.492Z,18.23
2019-06-20T01:07:19.628Z,18.43
2019-06-20T01:10:07.152Z,18.51
2019-06-20T01:12:56.157Z,18.51
2019-06-20T01:15:42.272Z,18.48
2019-06-20T01:18:28.392Z,18.29
2019-06-20T01:21:16.311Z,18.36
2019-06-20T01:24:02.117Z,18.34
2019-06-20T01:26:49.092Z,18.43
2019-06-20T01:29:35.297Z,18.49
2019-06-20T01:32:21.397Z,18.31
2019-06-20T01:35:08.051Z,18.30
2019-06-20T01:37:54.313Z,18.29
2019-06-20T01:40:40.519Z,18.31
2019-06-20T01:43:26.673Z,18.35
2019-06-20T01:46:13.679Z,18.35
2019-06-20T01:49:00.117Z,18.31
2019-06-20T01:51:46.265Z,18.36
2019-06-20T01:54:32.532Z,18.39
2019-06-20T01:57:18.967Z,18.25
2019-06-20T02:00:06.012Z,18.21
2019-06-20T02:02:52.092Z,18.29
2019-06-20T02:05:38.138Z,18.27
2019-06-20T02:08:24.326Z,18.18
2019-06-20T02:11:10.508Z,18.25
2019-06-20T02:14:06.783Z,18.21
2019-06-20T02:16:44.748Z,18.18
2019-06-20T02:19:30.941Z,18.11
2019-06-20T02:22:17.147Z,18.16
2019-06-20T02:25:04.060Z,18.18
2019-06-20T02:27:49.958Z,18.23
2019-06-20T02:30:36.115Z,18.21
2019-06-20T02:33:22.367Z,18.15
2019-06-20T02:36:08.388Z,18.15
2019-06-20T02:38:54.581Z,18.12
2019-06-20T02:41:40.920Z,18.17
2019-06-20T02:44:30.492Z,18.14
2019-06-20T02:47:15.173Z,18.17
2019-06-20T02:50:01.441Z,18.25
2019-06-20T02:52:47.676Z,18.22
2019-06-20T02:55:33.817Z,18.15
2019-06-20T02:58:20.318Z,18.12
2019-06-20T03:01:06.293Z,18.20
2019-06-20T03:03:52.666Z,18.12
2019-06-20T03:06:38.888Z,18.03
2019-06-20T03:09:25.158Z,17.99
2019-06-20T03:12:11.439Z,18.04
2019-06-20T03:14:57.467Z,18.11
2019-06-20T03:17:43.625Z,18.03
2019-06-20T03:20:29.897Z,18.09
2019-06-20T03:23:16.168Z,18.00
2019-06-20T03:26:02.264Z,17.99
2019-06-20T03:28:48.435Z,18.05
2019-06-20T03:31:34.484Z,18.00
2019-06-20T03:34:20.718Z,18.17
2019-06-20T03:37:06.983Z,18.07
2019-06-20T03:39:53.188Z,18.17
2019-06-20T03:42:39.331Z,18.19
2019-06-20T03:45:25.356Z,18.39
2019-06-20T03:48:11.413Z,18.42
2019-06-20T03:50:57.689Z,18.44
2019-06-20T03:53:43.869Z,18.49
2019-06-20T03:56:29.874Z,18.46
2019-06-20T03:59:16.242Z,18.53
2019-06-20T04:02:02.262Z,18.39
2019-06-20T04:04:48.354Z,18.43
2019-06-20T04:07:34.788Z,18.58
2019-06-20T04:10:20.887Z,18.91
2019-06-20T04:13:07.084Z,18.81
2019-06-20T04:15:53.168Z,18.83
2019-06-20T04:18:39.382Z,18.58
2019-06-20T04:21:25.453Z,18.51
2019-06-20T04:24:11.583Z,18.35
2019-06-20T04:26:57.804Z,18.35
2019-06-20T04:29:44.183Z,18.35
2019-06-20T04:32:30.217Z,18.26
2019-06-20T04:35:16.543Z,18.40
2019-06-20T04:38:02.792Z,18.28
2019-06-20T04:40:48.936Z,18.25
2019-06-20T04:43:35.162Z,18.35
2019-06-20T04:46:46.650Z,18.28
2019-06-20T04:49:32.859Z,18.19
2019-06-20T04:52:19.038Z,18.17
2019-06-20T04:55:05.768Z,18.27
2019-06-20T04:57:51.884Z,18.34
2019-06-20T05:00:38.732Z,18.30
2019-06-20T05:03:24.768Z,18.53
2019-06-20T05:06:11.029Z,18.38
2019-06-20T05:08:57.159Z,18.29
2019-06-20T05:11:43.385Z,18.31
2019-06-20T05:14:29.658Z,18.15
2019-06-20T05:17:15.688Z,18.16
2019-06-20T05:20:01.993Z,18.34
2019-06-20T05:22:48.056Z,18.43
2019-06-20T05:25:34.635Z,18.35
2019-06-20T05:28:21.221Z,18.35
2019-06-20T05:31:07.221Z,18.52
2019-06-20T05:33:53.394Z,18.35
2019-06-20T05:36:39.676Z,18.52
2019-06-20T05:39:25.771Z,18.67
2019-06-20T05:42:11.866Z,18.33
2019-06-20T05:44:58.235Z,18.38
2019-06-20T05:47:44.256Z,18.26
2019-06-20T05:50:31.005Z,18.41
2019-06-20T05:53:17.167Z,18.31
2019-06-20T05:56:03.292Z,18.26
2019-06-20T05:58:50.516Z,18.29
2019-06-20T06:01:36.540Z,18.55
2019-06-20T06:04:22.762Z,18.69
2019-06-20T06:07:08.853Z,18.62
2019-06-20T06:09:54.976Z,18.85
2019-06-20T06:12:41.231Z,18.78
2019-06-20T06:15:27.447Z,18.81
2019-06-20T06:18:14.220Z,18.77
2019-06-20T06:21:00.351Z,18.67
2019-06-20T06:23:46.630Z,18.92
2019-06-20T06:26:32.693Z,19.15
2019-06-20T06:29:18.841Z,19.09
2019-06-20T06:32:06.305Z,19.46
2019-06-20T06:34:52.472Z,19.76
2019-06-20T06:37:38.640Z,21.00
2019-06-20T06:40:24.779Z,20.94
2019-06-20T06:43:10.860Z,21.15
2019-06-20T06:45:57.099Z,20.49
2019-06-20T06:48:43.340Z,20.16
2019-06-20T06:51:29.580Z,20.04
2019-06-20T06:54:15.890Z,20.27
2019-06-20T06:57:02.021Z,20.32
2019-06-20T06:59:48.243Z,20.14
2019-06-20T07:02:34.702Z,20.15
2019-06-20T07:05:20.861Z,20.14
2019-06-20T07:08:08.685Z,20.15
2019-06-20T07:10:55.130Z,20.60
2019-06-20T07:13:41.172Z,20.72
2019-06-20T07:16:27.373Z,20.82
2019-06-20T07:19:13.414Z,20.51
2019-06-20T07:21:59.729Z,20.45
2019-06-20T07:24:45.865Z,20.36
2019-06-20T07:27:31.933Z,20.56
2019-06-20T07:30:18.215Z,20.87
2019-06-20T07:33:04.402Z,21.05
2019-06-20T07:35:50.540Z,20.80
2019-06-20T07:38:36.676Z,21.25
2019-06-20T07:41:22.990Z,21.50
2019-06-20T07:44:09.006Z,22.00
2019-06-20T07:46:55.358Z,22.57
2019-06-20T07:49:41.530Z,24.61
2019-06-20T07:52:27.893Z,25.97
2019-06-20T07:55:13.871Z,26.06
2019-06-20T07:57:59.837Z,25.41
2019-06-20T08:00:45.923Z,25.26
2019-06-20T08:03:32.231Z,25.36
2019-06-20T08:06:18.217Z,25.72
2019-06-20T08:09:07.163Z,25.82
2019-06-20T08:11:53.167Z,25.73
2019-06-20T08:14:39.250Z,27.04
2019-06-20T08:17:34.909Z,26.53
2019-06-20T08:20:15.527Z,25.84
2019-06-20T08:23:02.035Z,24.76
2019-06-20T08:25:48.275Z,24.22
2019-06-20T08:28:34.447Z,25.15
2019-06-20T08:31:20.657Z,25.32
2019-06-20T08:34:06.774Z,25.66
2019-06-20T08:36:52.955Z,26.24
2019-06-20T08:39:39.020Z,25.45
2019-06-20T08:42:25.295Z,24.66
2019-06-20T08:45:11.937Z,24.70
2019-06-20T08:47:58.438Z,24.62
2019-06-20T08:50:44.479Z,23.97
2019-06-20T08:53:30.775Z,24.14
2019-06-20T08:56:17.054Z,23.85
2019-06-20T08:59:03.268Z,23.96
2019-06-20T09:01:49.630Z,23.18
2019-06-20T09:04:36.092Z,23.76
2019-06-20T09:07:22.469Z,24.01
2019-06-20T09:10:09.141Z,24.48
2019-06-20T09:12:57.077Z,24.12
2019-06-20T09:15:44.390Z,24.12
2019-06-20T09:18:30.624Z,24.35
2019-06-20T09:21:16.711Z,24.53
2019-06-20T09:24:04.116Z,24.27
2019-06-20T09:26:51.140Z,23.92
2019-06-20T09:29:41.969Z,23.59
2019-06-20T09:32:26.921Z,23.30
2019-06-20T09:35:13.724Z,23.11
2019-06-20T09:37:59.689Z,23.29
2019-06-20T09:40:45.775Z,23.75
2019-06-20T09:43:32.150Z,24.13
2019-06-20T09:46:18.380Z,24.23
2019-06-20T09:49:04.485Z,24.83
2019-06-20T09:51:52.087Z,25.22
2019-06-20T09:54:38.499Z,24.87
2019-06-20T09:57:24.760Z,25.40
2019-06-20T10:00:12.775Z,25.04
2019-06-20T10:02:59.141Z,24.14
2019-06-20T10:05:47.156Z,24.97
2019-06-20T10:08:33.710Z,24.90
2019-06-20T10:11:19.878Z,25.23
2019-06-20T10:14:06.185Z,24.20
2019-06-20T10:16:54.064Z,24.20
2019-06-20T10:19:40.725Z,24.59
2019-06-20T10:22:27.326Z,24.75
2019-06-20T10:25:13.705Z,25.80
2019-06-20T10:28:00.244Z,25.54
2019-06-20T10:30:46.544Z,26.33
2019-06-20T10:33:32.641Z,25.87
2019-06-20T10:36:18.566Z,25.68
2019-06-20T10:39:08.096Z,25.33
2019-06-20T10:41:54.438Z,25.08
2019-06-20T10:44:40.787Z,24.83
2019-06-20T10:47:33.552Z,25.29
2019-06-20T10:50:15.418Z,25.47
2019-06-20T10:53:01.541Z,26.35
2019-06-20T10:55:47.536Z,27.35
2019-06-20T10:58:33.830Z,27.53
2019-06-20T11:01:20.101Z,27.84
2019-06-20T11:04:06.380Z,26.97
2019-06-20T11:06:52.238Z,27.22
2019-06-20T11:09:39.582Z,27.84
2019-06-20T11:12:26.674Z,27.42
2019-06-20T11:15:13.270Z,26.71
2019-06-20T11:17:59.675Z,27.09
2019-06-20T11:20:46.638Z,27.40
2019-06-20T11:23:33.092Z,28.34
2019-06-20T11:26:19.160Z,28.48
2019-06-20T11:29:05.394Z,27.38
2019-06-20T11:31:51.568Z,27.80
2019-06-20T11:34:38.298Z,27.38
2019-06-20T11:37:25.591Z,26.97
2019-06-20T11:40:11.844Z,26.21
2019-06-20T11:42:57.823Z,25.75
2019-06-20T11:45:43.913Z,26.04
2019-06-20T11:48:35.734Z,26.92
2019-06-20T11:51:22.904Z,26.23
2019-06-20T11:54:08.984Z,26.49
2019-06-20T11:56:55.230Z,25.60
2019-06-20T11:59:41.621Z,26.10
2019-06-20T12:02:27.657Z,25.29
2019-06-20T12:05:15.605Z,25.61
2019-06-20T12:08:01.821Z,25.10
2019-06-20T12:10:47.819Z,24.87
2019-06-20T12:13:34.240Z,25.08
2019-06-20T12:16:21.099Z,25.44
2019-06-20T12:19:07.120Z,25.39
2019-06-20T12:21:53.313Z,25.61
2019-06-20T12:24:41.282Z,25.28
2019-06-20T12:27:28.072Z,25.16
2019-06-20T12:30:14.752Z,24.81
2019-06-20T12:33:00.859Z,24.85
2019-06-20T12:35:46.866Z,24.56
2019-06-20T12:38:33.131Z,24.63
2019-06-20T12:41:19.294Z,24.37
2019-06-20T12:44:05.421Z,25.65
2019-06-20T12:46:51.626Z,25.65
2019-06-20T12:49:38.967Z,25.92
2019-06-20T12:52:25.885Z,25.58
2019-06-20T12:55:12.315Z,25.13
2019-06-20T12:57:58.677Z,25.65
2019-06-20T13:00:46.450Z,25.69
2019-06-20T13:03:32.660Z,25.57
2019-06-20T13:06:18.834Z,25.94
2019-06-20T13:09:05.658Z,24.80
2019-06-20T13:11:51.847Z,24.93
2019-06-20T13:14:39.215Z,25.03
2019-06-20T13:17:26.218Z,24.79
2019-06-20T13:20:12.677Z,25.14
2019-06-20T13:22:58.720Z,25.02
2019-06-20T13:25:44.824Z,25.44
2019-06-20T13:28:31.019Z,25.76
2019-06-20T13:31:16.985Z,25.31
2019-06-20T13:34:03.222Z,25.35
2019-06-20T13:36:49.767Z,25.19
2019-06-20T13:39:35.935Z,25.10
2019-06-20T13:42:22.100Z,25.49
2019-06-20T13:45:19.620Z,25.67
2019-06-20T13:48:05.851Z,25.67
2019-06-20T13:50:52.251Z,26.06
2019-06-20T13:53:39.213Z,26.17
2019-06-20T13:56:26.025Z,25.98
2019-06-20T13:59:12.328Z,26.05
2019-06-20T14:02:06.715Z,26.02
2019-06-20T14:04:48.268Z,25.98
2019-06-20T14:07:34.652Z,26.02
2019-06-20T14:10:21.088Z,25.87
2019-06-20T14:13:18.744Z,26.35
2019-06-20T14:15:55.799Z,26.35
2019-06-20T14:18:44.145Z,26.08
2019-06-20T14:21:29.829Z,25.95
2019-06-20T14:24:15.933Z,25.52
2019-06-20T14:27:02.441Z,25.80
2019-06-20T14:29:49.127Z,26.20
2019-06-20T14:32:35.728Z,26.08
2019-06-20T14:35:21.928Z,26.08
2019-06-20T14:38:08.028Z,26.34
2019-06-20T14:40:54.549Z,26.08
2019-06-20T14:43:42.980Z,26.10
2019-06-20T14:46:29.632Z,25.97
2019-06-20T14:49:15.802Z,25.57
2019-06-20T14:52:02.152Z,26.06
2019-06-20T14:54:49.762Z,26.49
2019-06-20T14:57:36.160Z,26.51
2019-06-20T15:00:22.866Z,26.63
2019-06-20T15:03:08.978Z,26.13
2019-06-20T15:05:55.323Z,26.09
2019-06-20T15:08:41.302Z,25.91
2019-06-20T15:11:27.547Z,25.43
2019-06-20T15:14:13.746Z,25.43
2019-06-20T15:16:59.967Z,25.59
2019-06-20T15:19:46.682Z,25.82
2019-06-20T15:22:33.909Z,25.72
2019-06-20T15:25:19.996Z,25.57
2019-06-20T15:28:06.109Z,25.24
2019-06-20T15:30:52.760Z,25.27
2019-06-20T15:33:39.192Z,25.73
2019-06-20T15:36:25.482Z,26.01
2019-06-20T15:39:11.736Z,26.08
2019-06-20T15:41:58.226Z,25.61
2019-06-20T15:44:44.428Z,25.29
2019-06-20T15:47:30.749Z,25.39
2019-06-20T15:50:16.851Z,25.35
2019-06-20T15:53:03.185Z,25.21
2019-06-20T15:55:49.140Z,25.26
2019-06-20T15:58:35.146Z,25.30
2019-06-20T16:01:21.327Z,24.98
2019-06-20T16:04:07.531Z,25.04
2019-06-20T16:06:54.553Z,25.03
2019-06-20T16:09:41.215Z,24.93
2019-06-20T16:12:27.386Z,24.76
2019-06-20T16:15:21.337Z,24.64
2019-06-20T16:18:07.280Z,24.51
2019-06-20T16:20:53.723Z,24.45
2019-06-20T16:23:40.834Z,24.18
2019-06-20T16:26:27.035Z,24.14
2019-06-20T16:29:13.034Z,24.19
2019-06-20T16:31:58.906Z,24.24
2019-06-20T16:34:44.938Z,24.27
2019-06-20T16:37:31.269Z,24.10
2019-06-20T16:40:25.123Z,24.29
2019-06-20T16:43:11.574Z,23.89
2019-06-20T16:45:58.222Z,23.82
2019-06-20T16:48:44.423Z,23.82
2019-06-20T16:51:30.564Z,23.93
2019-06-20T16:54:16.722Z,24.04
2019-06-20T16:57:02.978Z,24.11
2019-06-20T16:59:48.989Z,23.88
2019-06-20T17:02:35.379Z,23.87
2019-06-20T17:05:21.484Z,23.76
2019-06-20T17:08:07.884Z,23.41
2019-06-20T17:10:53.889Z,23.27
2019-06-20T17:13:40.044Z,23.31
2019-06-20T17:16:26.678Z,23.20
2019-06-20T17:19:12.828Z,23.31
2019-06-20T17:21:59.119Z,23.20
2019-06-20T17:24:45.068Z,23.18
2019-06-20T17:27:31.551Z,23.35
2019-06-20T17:30:18.175Z,23.39
2019-06-20T17:33:04.424Z,23.23
2019-06-20T17:35:50.940Z,23.24
2019-06-20T17:38:37.460Z,23.16
2019-06-20T17:41:23.540Z,23.20
2019-06-20T17:44:09.882Z,23.23
2019-06-20T17:46:56.536Z,23.26
2019-06-20T17:49:43.341Z,23.15
2019-06-20T17:52:30.139Z,23.11
2019-06-20T17:55:16.760Z,23.19
2019-06-20T17:58:02.973Z,23.18
2019-06-20T18:00:49.987Z,23.07
2019-06-20T18:03:36.662Z,22.93
2019-06-20T18:06:23.445Z,22.93
2019-06-20T18:09:10.202Z,22.86
2019-06-20T18:11:56.840Z,22.83
2019-06-20T18:14:43.480Z,22.98
2019-06-20T18:17:30.280Z,23.03
2019-06-20T18:20:19.743Z,22.85
2019-06-20T18:23:06.400Z,22.74
2019-06-20T18:25:54.642Z,22.75
2019-06-20T18:28:41.301Z,22.58
2019-06-20T18:31:27.842Z,22.42
2019-06-20T18:34:29.229Z,22.60
2019-06-20T18:37:03.760Z,22.44
2019-06-20T18:39:50.293Z,22.37
2019-06-20T18:42:37.028Z,22.28
2019-06-20T18:45:24.200Z,22.23
2019-06-20T18:48:11.139Z,22.20
2019-06-20T18:50:57.493Z,22.04
2019-06-20T18:53:44.354Z,21.73
2019-06-20T18:56:30.733Z,21.65
2019-06-20T18:59:17.576Z,21.42
2019-06-20T19:02:04.729Z,21.24
2019-06-20T19:04:51.138Z,21.32
2019-06-20T19:07:37.725Z,21.21
2019-06-20T19:10:24.593Z,21.22
2019-06-20T19:13:13.038Z,21.22
2019-06-20T19:15:59.678Z,21.21
2019-06-20T19:18:46.343Z,21.04
2019-06-20T19:21:33.104Z,20.99
2019-06-20T19:24:19.841Z,20.95
2019-06-20T19:27:06.647Z,21.01
2019-06-20T19:29:53.381Z,20.98
2019-06-20T19:32:39.932Z,20.99
2019-06-20T19:35:26.327Z,20.99
2019-06-20T19:38:12.902Z,20.83
2019-06-20T19:40:59.570Z,20.92
2019-06-20T19:43:46.117Z,20.86
2019-06-20T19:46:32.578Z,20.78
2019-06-20T19:49:19.393Z,20.73
2019-06-20T19:52:06.109Z,20.72
2019-06-20T19:54:52.947Z,20.69
2019-06-20T19:57:39.727Z,20.70
2019-06-20T20:00:26.367Z,20.45
2019-06-20T20:03:13.152Z,20.46
2019-06-20T20:06:00.049Z,20.46
2019-06-20T20:08:46.683Z,20.37
2019-06-20T20:11:33.117Z,20.33
2019-06-20T20:14:19.835Z,20.27
2019-06-20T20:17:06.057Z,20.08
2019-06-20T20:19:52.895Z,20.09
2019-06-20T20:22:39.527Z,19.98
2019-06-20T20:25:25.989Z,20.07
2019-06-20T20:28:12.727Z,20.17
2019-06-20T20:30:59.235Z,20.09
2019-06-20T20:33:45.420Z,19.95
2019-06-20T20:36:32.182Z,20.05
2019-06-20T20:39:18.797Z,20.02
2019-06-20T20:42:05.666Z,20.01
2019-06-20T20:44:52.187Z,19.95
2019-06-20T20:47:38.527Z,19.89
2019-06-20T20:50:24.786Z,19.90
2019-06-20T20:53:10.819Z,19.77
2019-06-20T20:55:56.830Z,19.84
2019-06-20T20:58:42.892Z,19.84
2019-06-20T21:01:30.202Z,19.87
2019-06-20T21:04:16.634Z,19.82
2019-06-20T21:07:02.967Z,19.85
2019-06-20T21:09:49.130Z,19.80
2019-06-20T21:12:35.183Z,19.79
2019-06-20T21:15:21.606Z,19.80
2019-06-20T21:18:07.772Z,19.80
2019-06-20T21:20:54.163Z,19.76
2019-06-20T21:23:40.355Z,19.74
2019-06-20T21:26:26.527Z,19.70
2019-06-20T21:29:12.699Z,19.66
2019-06-20T21:31:58.827Z,19.77
2019-06-20T21:34:45.027Z,19.67
2019-06-20T21:37:31.434Z,19.52
2019-06-20T21:40:18.159Z,19.60
2019-06-20T21:43:04.828Z,19.59
2019-06-20T21:45:51.442Z,19.45
2019-06-20T21:48:37.474Z,19.27
2019-06-20T21:51:23.767Z,19.24
2019-06-20T21:54:10.476Z,19.19
2019-06-20T21:56:56.691Z,19.12
2019-06-20T21:59:42.692Z,19.01
2019-06-20T22:02:28.981Z,18.97
2019-06-20T22:05:15.183Z,18.77
2019-06-20T22:08:01.456Z,18.80
2019-06-20T22:10:47.472Z,18.80
2019-06-20T22:13:33.707Z,18.87
2019-06-20T22:16:19.908Z,18.87
2019-06-20T22:19:05.947Z,18.85
2019-06-20T22:21:52.030Z,18.94
2019-06-20T22:24:38.297Z,18.95
2019-06-20T22:27:24.404Z,18.96
2019-06-20T22:30:11.443Z,18.92
2019-06-20T22:32:57.888Z,18.77
2019-06-20T22:35:45.903Z,18.68
2019-06-20T22:38:32.647Z,18.76
2019-06-20T22:41:18.757Z,18.57
2019-06-20T22:44:04.916Z,18.66
2019-06-20T22:46:50.983Z,18.53
2019-06-20T22:49:37.317Z,18.61
2019-06-20T22:52:23.517Z,18.62
2019-06-20T22:55:09.917Z,18.56
2019-06-20T22:57:56.508Z,18.47
2019-06-20T23:00:42.896Z,18.40
2019-06-20T23:03:28.853Z,18.26
2019-06-20T23:06:14.917Z,18.29
2019-06-20T23:09:00.997Z,18.21
2019-06-20T23:11:47.339Z,18.19
2019-06-20T23:14:33.785Z,18.15
2019-06-20T23:17:19.986Z,18.08
2019-06-20T23:20:06.705Z,18.06
2019-06-20T23:22:53.057Z,18.12
2019-06-20T23:25:41.102Z,18.17
2019-06-20T23:28:27.530Z,18.13
2019-06-20T23:31:13.658Z,18.08
2019-06-20T23:33:59.919Z,18.10
2019-06-20T23:36:46.211Z,18.13
2019-06-20T23:39:32.456Z,18.07
2019-06-20T23:42:18.637Z,17.99
2019-06-20T23:45:05.136Z,17.94
2019-06-20T23:47:51.417Z,17.97
2019-06-20T23:50:37.518Z,17.88
2019-06-20T23:53:26.059Z,17.85
2019-06-20T23:56:11.812Z,17.83
2019-06-20T23:58:57.910Z,17.84
